Liberty of The Seas — C6VQ8 — position and weather

sailwx.info

Track history (hours):
 
Tides and Currents Weather Stations Pressure Air Temp Water Temp Dewpoint Dewpoint Depression Visibility Wind Speed Wind Dir Waves Ship Positions

Liberty of The Seas

Last reported at 2014-Oct-28 01:24 UTC. Time now 2014-Oct-31 20:44 UTC.
Position N 35°59' W 005°26'.

Type: Passenger vessel. MMSI: 309436000.

Date/timePositionNaut miles runAvg speedWind from/ knotsBaromVisibWave heightAir tempDewpointWater temp
2014-Oct-28 01:24N 35°59' W 005°26'1517.0
2014-Oct-28 00:32N 36°05' W 005°10'22414.6
2014-Oct-27 09:11N 37°24' W 000°47'1516.8
2014-Oct-27 08:18N 37°34' W 000°34'16116.4
2014-Oct-26 22:29N 39°49' E 001°17'1616.5
2014-Oct-26 21:31N 40°04' E 001°26'1616.6
2014-Oct-26 20:33N 40°18' E 001°35'1816.5
2014-Oct-26 19:27N 40°35' E 001°46'51 3.5
2014-Oct-26 05:08N 41°22' E 002°11'8 5.2
2014-Oct-26 03:30N 41°16' E 002°19'3222.7
2014-Oct-26 02:07N 41°16' E 003°01'0 0.0
2014-Oct-26 01:12N 41°16' E 003°01'1316.3
2014-Oct-26 00:23N 41°16' E 003°18'1516.0
2014-Oct-25 23:25N 41°16' E 003°39'2116.4
2014-Oct-25 22:08N 41°17' E 004°07'2916.4
2014-Oct-25 20:20N 41°18' E 004°46'1415.7
2014-Oct-25 19:28N 41°17' E 005°04'1816.1
2014-Oct-25 18:20N 41°17' E 005°28'1315.9
2014-Oct-25 17:32N 41°17' E 005°45'  
2014-Oct-22 18:31N 43°48' E 009°46'1516.0
2014-Oct-22 17:34N 44°03' E 009°52'3 3.3
2014-Oct-22 16:31N 44°06' E 009°50'0 0.0
2014-Oct-22 15:31N 44°06' E 009°50'0 0.0
2014-Oct-22 14:31N 44°06' E 009°50'0 0.0
2014-Oct-22 13:31N 44°06' E 009°50'0 0.0
2014-Oct-22 12:31N 44°06' E 009°50'0 0.0
2014-Oct-22 11:31N 44°06' E 009°50'0 0.0
2014-Oct-22 10:28N 44°06' E 009°50'0 0.0
2014-Oct-22 09:31N 44°06' E 009°50'0 0.0
2014-Oct-22 08:31N 44°06' E 009°50'0 0.0
2014-Oct-22 07:31N 44°06' E 009°50'0 0.0
2014-Oct-22 06:34N 44°06' E 009°50'0 0.0
2014-Oct-22 05:31N 44°06' E 009°50'0 0.0
2014-Oct-22 04:34N 44°06' E 009°50'5 5.3
2014-Oct-22 03:33N 44°02' E 009°54'8 8.0
2014-Oct-22 02:34N 43°57' E 009°45'1111.3
2014-Oct-22 01:33N 43°56' E 009°30'1111.3
2014-Oct-22 00:33N 43°54' E 009°14'1111.0
2014-Oct-21 23:34N 43°52' E 008°59'1111.3
2014-Oct-21 22:33N 43°50' E 008°44'6211.5
2014-Oct-21 17:11N 43°39' E 007°19'2 3.0
2014-Oct-21 16:31N 43°41' E 007°19'0 0.0
2014-Oct-21 15:31N 43°41' E 007°19'0 0.0
2014-Oct-21 14:19N 43°41' E 007°19'0 0.0
2014-Oct-21 11:31N 43°41' E 007°19'0 0.0
2014-Oct-21 04:31N 43°41' E 007°19'1010.3
2014-Oct-21 03:34N 43°31' E 007°17'2311.4
2014-Oct-21 01:33N 43°10' E 007°05'1212.1
2014-Oct-21 00:32N 43°01' E 006°54'1212.0
2014-Oct-20 23:33N 42°52' E 006°43'6610.3
2014-Oct-20 17:06N 43°13' E 005°17'8 0.8
2014-Oct-20 06:31N 43°21' E 005°19'9 9.5
2014-Oct-20 05:33N 43°15' E 005°10'1312.8
2014-Oct-20 04:33N 43°05' E 004°58'10013.3
2014-Oct-19 21:04N 41°51' E 003°28'2013.3
2014-Oct-19 19:33N 41°40' E 003°05'1713.4
2014-Oct-19 18:16N 41°30' E 002°46'2613.3
2014-Oct-19 16:17N 41°17' E 002°16'50 3.0
2014-Oct-18 23:33N 41°16' E 003°23'3316.5
2014-Oct-18 21:33N 41°16' E 004°07'2016.3
2014-Oct-18 20:21N 41°16' E 004°33'2015.9
2014-Oct-18 19:07N 41°16' E 004°59'1016.7
2014-Oct-18 18:32N 41°16' E 005°12'1716.8
2014-Oct-18 17:32N 41°17' E 005°34'1515.8
2014-Oct-18 16:33N 41°17' E 005°55'1716.0
2014-Oct-18 15:30N 41°17' E 006°17'2216.2
2014-Oct-18 14:09N 41°17' E 006°46'1016.3
2014-Oct-18 13:32N 41°17' E 006°60'  
Track history (hours):
 
Tides and Currents Weather Stations Pressure Air Temp Water Temp Dewpoint Dewpoint Depression Visibility Wind Speed Wind Dir Waves Ship Positions

Liberty of The Seas

Last reported at 2014-Oct-28 01:24 UTC. Time now 2014-Oct-31 20:44 UTC.
Position N 35°59' W 005°26'.

Type: Passenger vessel. MMSI: 309436000.

Date/timePositionNaut miles runAvg speedWind from/ knotsBaromVisibWave heightAir tempDewpointWater temp
2014-Oct-28 01:24N 35°59' W 005°26'1517.0
2014-Oct-28 00:32N 36°05' W 005°10'22414.6
2014-Oct-27 09:11N 37°24' W 000°47'1516.8
2014-Oct-27 08:18N 37°34' W 000°34'16116.4
2014-Oct-26 22:29N 39°49' E 001°17'1616.5
2014-Oct-26 21:31N 40°04' E 001°26'1616.6
2014-Oct-26 20:33N 40°18' E 001°35'1816.5
2014-Oct-26 19:27N 40°35' E 001°46'51 3.5
2014-Oct-26 05:08N 41°22' E 002°11'8 5.2
2014-Oct-26 03:30N 41°16' E 002°19'3222.7
2014-Oct-26 02:07N 41°16' E 003°01'0 0.0
2014-Oct-26 01:12N 41°16' E 003°01'1316.3
2014-Oct-26 00:23N 41°16' E 003°18'1516.0
2014-Oct-25 23:25N 41°16' E 003°39'2116.4
2014-Oct-25 22:08N 41°17' E 004°07'2916.4
2014-Oct-25 20:20N 41°18' E 004°46'1415.7
2014-Oct-25 19:28N 41°17' E 005°04'1816.1
2014-Oct-25 18:20N 41°17' E 005°28'1315.9
2014-Oct-25 17:32N 41°17' E 005°45'  
2014-Oct-22 18:31N 43°48' E 009°46'1516.0
2014-Oct-22 17:34N 44°03' E 009°52'3 3.3
2014-Oct-22 16:31N 44°06' E 009°50'0 0.0
2014-Oct-22 15:31N 44°06' E 009°50'0 0.0
2014-Oct-22 14:31N 44°06' E 009°50'0 0.0
2014-Oct-22 13:31N 44°06' E 009°50'0 0.0
2014-Oct-22 12:31N 44°06' E 009°50'0 0.0
2014-Oct-22 11:31N 44°06' E 009°50'0 0.0
2014-Oct-22 10:28N 44°06' E 009°50'0 0.0
2014-Oct-22 09:31N 44°06' E 009°50'0 0.0
2014-Oct-22 08:31N 44°06' E 009°50'0 0.0
2014-Oct-22 07:31N 44°06' E 009°50'0 0.0
2014-Oct-22 06:34N 44°06' E 009°50'0 0.0
2014-Oct-22 05:31N 44°06' E 009°50'0 0.0
2014-Oct-22 04:34N 44°06' E 009°50'5 5.3
2014-Oct-22 03:33N 44°02' E 009°54'8 8.0
2014-Oct-22 02:34N 43°57' E 009°45'1111.3
2014-Oct-22 01:33N 43°56' E 009°30'1111.3
2014-Oct-22 00:33N 43°54' E 009°14'1111.0
2014-Oct-21 23:34N 43°52' E 008°59'1111.3
2014-Oct-21 22:33N 43°50' E 008°44'6211.5
2014-Oct-21 17:11N 43°39' E 007°19'2 3.0
2014-Oct-21 16:31N 43°41' E 007°19'0 0.0
2014-Oct-21 15:31N 43°41' E 007°19'0 0.0
2014-Oct-21 14:19N 43°41' E 007°19'0 0.0
2014-Oct-21 11:31N 43°41' E 007°19'0 0.0
2014-Oct-21 04:31N 43°41' E 007°19'1010.3
2014-Oct-21 03:34N 43°31' E 007°17'2311.4
2014-Oct-21 01:33N 43°10' E 007°05'1212.1
2014-Oct-21 00:32N 43°01' E 006°54'1212.0
2014-Oct-20 23:33N 42°52' E 006°43'6610.3
2014-Oct-20 17:06N 43°13' E 005°17'8 0.8
2014-Oct-20 06:31N 43°21' E 005°19'9 9.5
2014-Oct-20 05:33N 43°15' E 005°10'1312.8
2014-Oct-20 04:33N 43°05' E 004°58'10013.3
2014-Oct-19 21:04N 41°51' E 003°28'2013.3
2014-Oct-19 19:33N 41°40' E 003°05'1713.4
2014-Oct-19 18:16N 41°30' E 002°46'2613.3
2014-Oct-19 16:17N 41°17' E 002°16'50 3.0
2014-Oct-18 23:33N 41°16' E 003°23'3316.5
2014-Oct-18 21:33N 41°16' E 004°07'2016.3
2014-Oct-18 20:21N 41°16' E 004°33'2015.9
2014-Oct-18 19:07N 41°16' E 004°59'1016.7
2014-Oct-18 18:32N 41°16' E 005°12'1716.8
2014-Oct-18 17:32N 41°17' E 005°34'1515.8
2014-Oct-18 16:33N 41°17' E 005°55'1716.0
2014-Oct-18 15:30N 41°17' E 006°17'2216.2
2014-Oct-18 14:09N 41°17' E 006°46'1016.3
2014-Oct-18 13:32N 41°17' E 006°60'  

Dump ship's entire track history